sensor_id;sensor_type;location;lat;lon;timestamp;pressure;altitude;pressure_sealevel;temperature;humidity
43934;BME280;59081;42.706;23.306;2023-07-22T00:02:27;95056.22;;;24.53;50.90
43934;BME280;59081;42.706;23.306;2023-07-22T00:04:52;94991.78;;;23.87;51.44
43934;BME280;59081;42.706;23.306;2023-07-22T00:07:18;94961.16;;;23.59;51.58
43934;BME280;59081;42.706;23.306;2023-07-22T00:09:49;94981.16;;;23.75;51.94
43934;BME280;59081;42.706;23.306;2023-07-22T00:12:18;94994.78;;;23.71;52.15
43934;BME280;59081;42.706;23.306;2023-07-22T00:14:46;95013.44;;;23.92;52.21
43934;BME280;59081;42.706;23.306;2023-07-22T00:17:12;95102.16;;;24.61;51.99
43934;BME280;59081;42.706;23.306;2023-07-22T00:19:40;95170.59;;;24.99;51.84
43934;BME280;59081;42.706;23.306;2023-07-22T00:22:05;95111.47;;;24.56;52.27
43934;BME280;59081;42.706;23.306;2023-07-22T00:24:31;95165.56;;;24.92;52.15
43934;BME280;59081;42.706;23.306;2023-07-22T00:27:00;95159.63;;;24.95;52.26
43934;BME280;59081;42.706;23.306;2023-07-22T00:29:26;94995.41;;;23.82;52.15
43934;BME280;59081;42.706;23.306;2023-07-22T00:31:52;94968.66;;;23.21;53.48
43934;BME280;59081;42.706;23.306;2023-07-22T00:34:25;95154.47;;;24.56;53.49
43934;BME280;59081;42.706;23.306;2023-07-22T00:36:50;95163.94;;;24.35;54.38
43934;BME280;59081;42.706;23.306;2023-07-22T00:39:20;94913.44;;;22.70;54.75
43934;BME280;59081;42.706;23.306;2023-07-22T00:41:45;95027.69;;;23.51;54.76
43934;BME280;59081;42.706;23.306;2023-07-22T00:44:18;95162.78;;;24.43;54.72
43934;BME280;59081;42.706;23.306;2023-07-22T00:46:47;95170.81;;;24.39;54.60
43934;BME280;59081;42.706;23.306;2023-07-22T00:49:14;94977.56;;;23.01;54.91
43934;BME280;59081;42.706;23.306;2023-07-22T00:51:47;95125.72;;;23.90;55.47
43934;BME280;59081;42.706;23.306;2023-07-22T00:54:16;95142.53;;;23.72;55.85
43934;BME280;59081;42.706;23.306;2023-07-22T00:56:41;94984.63;;;22.78;56.06
43934;BME280;59081;42.706;23.306;2023-07-22T00:59:17;95167.09;;;23.95;56.62
43934;BME280;59081;42.706;23.306;2023-07-22T01:01:49;95070.38;;;23.20;56.79
43934;BME280;59081;42.706;23.306;2023-07-22T01:04:15;95063.59;;;22.63;58.27
43934;BME280;59081;42.706;23.306;2023-07-22T01:06:45;95020.63;;;22.79;57.33
43934;BME280;59081;42.706;23.306;2023-07-22T01:09:11;95023.03;;;23.00;56.99
43934;BME280;59081;42.706;23.306;2023-07-22T01:11:37;94984.53;;;22.89;56.32
43934;BME280;59081;42.706;23.306;2023-07-22T01:14:03;95040.50;;;23.47;56.24
43934;BME280;59081;42.706;23.306;2023-07-22T01:16:29;95027.91;;;23.23;56.45
43934;BME280;59081;42.706;23.306;2023-07-22T01:18:55;95116.16;;;23.75;56.71
43934;BME280;59081;42.706;23.306;2023-07-22T01:21:22;95000.44;;;23.11;56.24
43934;BME280;59081;42.706;23.306;2023-07-22T01:23:49;94923.16;;;22.69;55.92
43934;BME280;59081;42.706;23.306;2023-07-22T01:26:15;94950.31;;;22.90;55.73
43934;BME280;59081;42.706;23.306;2023-07-22T01:28:41;95094.78;;;23.90;55.66
43934;BME280;59081;42.706;23.306;2023-07-22T01:31:10;95082.84;;;23.84;55.76
43934;BME280;59081;42.706;23.306;2023-07-22T01:33:35;94991.59;;;23.31;55.24
43934;BME280;59081;42.706;23.306;2023-07-22T01:36:01;95103.47;;;24.17;55.25
43934;BME280;59081;42.706;23.306;2023-07-22T01:38:27;94968.97;;;23.18;55.43
43934;BME280;59081;42.706;23.306;2023-07-22T01:40:55;95085.41;;;23.82;55.80
43934;BME280;59081;42.706;23.306;2023-07-22T01:43:21;94975.28;;;23.24;55.73
43934;BME280;59081;42.706;23.306;2023-07-22T01:45:47;95146.13;;;24.45;55.50
43934;BME280;59081;42.706;23.306;2023-07-22T01:48:13;95131.72;;;24.54;54.99
43934;BME280;59081;42.706;23.306;2023-07-22T01:50:38;94993.78;;;23.68;55.12
43934;BME280;59081;42.706;23.306;2023-07-22T01:53:07;94931.81;;;23.31;54.65
43934;BME280;59081;42.706;23.306;2023-07-22T01:55:35;94946.97;;;23.46;55.09
43934;BME280;59081;42.706;23.306;2023-07-22T01:58:01;95000.38;;;23.95;54.68
43934;BME280;59081;42.706;23.306;2023-07-22T02:00:30;94928.56;;;23.45;54.37
43934;BME280;59081;42.706;23.306;2023-07-22T02:03:01;95115.88;;;24.51;55.42
43934;BME280;59081;42.706;23.306;2023-07-22T02:05:30;94975.53;;;23.50;55.48
43934;BME280;59081;42.706;23.306;2023-07-22T02:07:56;94891.53;;;22.98;55.50
43934;BME280;59081;42.706;23.306;2023-07-22T02:10:21;94910.75;;;22.88;55.78
43934;BME280;59081;42.706;23.306;2023-07-22T02:12:50;95088.75;;;24.05;56.62
43934;BME280;59081;42.706;23.306;2023-07-22T02:15:15;94993.22;;;23.45;56.43
43934;BME280;59081;42.706;23.306;2023-07-22T02:17:41;95021.66;;;23.66;56.51
43934;BME280;59081;42.706;23.306;2023-07-22T02:20:07;95014.28;;;23.63;56.49
43934;BME280;59081;42.706;23.306;2023-07-22T02:22:36;95070.41;;;23.99;56.46
43934;BME280;59081;42.706;23.306;2023-07-22T02:25:02;94964.53;;;23.28;56.35
43934;BME280;59081;42.706;23.306;2023-07-22T02:27:28;95145.81;;;24.30;56.88
43934;BME280;59081;42.706;23.306;2023-07-22T02:29:54;95075.81;;;23.72;57.08
43934;BME280;59081;42.706;23.306;2023-07-22T02:32:19;95099.75;;;23.54;58.18
43934;BME280;59081;42.706;23.306;2023-07-22T02:34:50;95030.63;;;23.05;58.34
43934;BME280;59081;42.706;23.306;2023-07-22T02:37:16;95091.09;;;23.47;58.82
43934;BME280;59081;42.706;23.306;2023-07-22T02:39:41;95068.75;;;23.30;58.89
43934;BME280;59081;42.706;23.306;2023-07-22T02:42:07;95002.09;;;23.01;58.39
43934;BME280;59081;42.706;23.306;2023-07-22T02:44:38;94953.09;;;22.61;59.09
43934;BME280;59081;42.706;23.306;2023-07-22T02:47:06;95063.19;;;22.89;60.08
43934;BME280;59081;42.706;23.306;2023-07-22T02:49:32;94953.59;;;22.23;60.09
43934;BME280;59081;42.706;23.306;2023-07-22T02:51:58;94934.59;;;22.00;60.02
43934;BME280;59081;42.706;23.306;2023-07-22T02:54:24;94961.81;;;22.16;60.04
43934;BME280;59081;42.706;23.306;2023-07-22T02:56:52;95101.84;;;23.13;60.36
43934;BME280;59081;42.706;23.306;2023-07-22T02:59:21;94985.72;;;22.28;60.38
43934;BME280;59081;42.706;23.306;2023-07-22T03:01:46;95107.09;;;23.27;60.30
43934;BME280;59081;42.706;23.306;2023-07-22T03:04:12;95008.19;;;22.64;59.86
43934;BME280;59081;42.706;23.306;2023-07-22T03:06:40;95076.59;;;22.66;61.10
43934;BME280;59081;42.706;23.306;2023-07-22T03:09:07;95029.75;;;22.44;60.90
43934;BME280;59081;42.706;23.306;2023-07-22T03:11:33;95074.50;;;22.78;60.80
43934;BME280;59081;42.706;23.306;2023-07-22T03:13:59;95149.75;;;23.26;60.35
43934;BME280;59081;42.706;23.306;2023-07-22T03:16:25;95069.88;;;22.75;60.83
43934;BME280;59081;42.706;23.306;2023-07-22T03:18:56;95167.34;;;23.32;60.65
43934;BME280;59081;42.706;23.306;2023-07-22T03:21:21;95110.81;;;23.06;60.84
43934;BME280;59081;42.706;23.306;2023-07-22T03:23:49;94937.16;;;21.98;60.64
43934;BME280;59081;42.706;23.306;2023-07-22T03:26:16;94959.28;;;22.12;60.29
43934;BME280;59081;42.706;23.306;2023-07-22T03:28:41;94988.53;;;22.28;60.27
43934;BME280;59081;42.706;23.306;2023-07-22T03:31:13;94998.72;;;22.26;60.13
43934;BME280;59081;42.706;23.306;2023-07-22T03:33:38;95051.38;;;22.55;60.35
43934;BME280;59081;42.706;23.306;2023-07-22T03:36:06;95115.34;;;22.79;60.89
43934;BME280;59081;42.706;23.306;2023-07-22T03:38:32;95179.91;;;23.25;61.25
43934;BME280;59081;42.706;23.306;2023-07-22T03:40:58;95139.47;;;22.99;61.00
43934;BME280;59081;42.706;23.306;2023-07-22T03:43:24;95029.84;;;22.22;61.28
43934;BME280;59081;42.706;23.306;2023-07-22T03:45:49;94996.28;;;22.00;61.06
43934;BME280;59081;42.706;23.306;2023-07-22T03:48:22;95196.34;;;23.10;61.30
43934;BME280;59081;42.706;23.306;2023-07-22T03:50:48;95102.94;;;22.52;61.57
43934;BME280;59081;42.706;23.306;2023-07-22T03:53:14;95041.91;;;22.11;61.52
43934;BME280;59081;42.706;23.306;2023-07-22T03:55:42;94999.44;;;21.79;61.52
43934;BME280;59081;42.706;23.306;2023-07-22T03:58:09;95146.22;;;22.73;61.62
43934;BME280;59081;42.706;23.306;2023-07-22T04:00:38;95205.03;;;23.12;61.57
43934;BME280;59081;42.706;23.306;2023-07-22T04:03:04;95086.94;;;22.36;61.89
43934;BME280;59081;42.706;23.306;2023-07-22T04:05:32;95074.50;;;22.20;61.49
43934;BME280;59081;42.706;23.306;2023-07-22T04:08:06;95128.94;;;22.52;61.70
43934;BME280;59081;42.706;23.306;2023-07-22T04:10:34;95137.38;;;22.52;61.59
43934;BME280;59081;42.706;23.306;2023-07-22T04:13:00;95205.28;;;23.09;62.24
43934;BME280;59081;42.706;23.306;2023-07-22T04:15:25;95020.03;;;21.82;62.02
43934;BME280;59081;42.706;23.306;2023-07-22T04:17:51;95035.38;;;21.75;63.02
43934;BME280;59081;42.706;23.306;2023-07-22T04:20:20;95094.13;;;22.31;63.27
43934;BME280;59081;42.706;23.306;2023-07-22T04:22:53;95039.16;;;21.83;63.09
43934;BME280;59081;42.706;23.306;2023-07-22T04:25:21;95160.63;;;22.47;63.86
43934;BME280;59081;42.706;23.306;2023-07-22T04:27:47;95043.50;;;21.84;62.92
43934;BME280;59081;42.706;23.306;2023-07-22T04:30:18;95088.56;;;22.14;62.90
43934;BME280;59081;42.706;23.306;2023-07-22T04:32:49;95125.16;;;22.50;62.75
43934;BME280;59081;42.706;23.306;2023-07-22T04:35:17;95095.22;;;22.06;63.92
43934;BME280;59081;42.706;23.306;2023-07-22T04:37:51;95227.91;;;22.75;64.28
43934;BME280;59081;42.706;23.306;2023-07-22T04:40:17;95120.94;;;22.15;63.83
43934;BME280;59081;42.706;23.306;2023-07-22T04:42:45;95197.03;;;22.70;64.09
43934;BME280;59081;42.706;23.306;2023-07-22T04:45:13;95158.66;;;22.20;65.54
43934;BME280;59081;42.706;23.306;2023-07-22T04:47:39;95016.13;;;21.27;65.84
43934;BME280;59081;42.706;23.306;2023-07-22T04:50:16;95215.16;;;22.69;65.99
43934;BME280;59081;42.706;23.306;2023-07-22T04:53:01;95233.88;;;22.49;66.22
43934;BME280;59081;42.706;23.306;2023-07-22T04:55:29;95218.94;;;22.88;65.50
43934;BME280;59081;42.706;23.306;2023-07-22T04:57:57;95085.75;;;22.14;64.51
43934;BME280;59081;42.706;23.306;2023-07-22T05:00:26;95209.03;;;23.22;63.96
43934;BME280;59081;42.706;23.306;2023-07-22T05:02:54;95073.63;;;22.47;63.92
43934;BME280;59081;42.706;23.306;2023-07-22T05:05:21;95097.69;;;22.84;62.70
43934;BME280;59081;42.706;23.306;2023-07-22T05:07:47;95244.34;;;23.94;62.20
43934;BME280;59081;42.706;23.306;2023-07-22T05:10:15;95228.97;;;24.01;62.31
43934;BME280;59081;42.706;23.306;2023-07-22T05:12:42;95200.09;;;23.95;61.75
43934;BME280;59081;42.706;23.306;2023-07-22T05:15:16;95049.97;;;23.14;61.70
43934;BME280;59081;42.706;23.306;2023-07-22T05:17:41;95024.72;;;23.08;61.02
43934;BME280;59081;42.706;23.306;2023-07-22T05:20:10;95070.38;;;23.50;61.17
43934;BME280;59081;42.706;23.306;2023-07-22T05:22:37;95078.03;;;23.55;60.55
43934;BME280;59081;42.706;23.306;2023-07-22T05:25:03;95161.59;;;24.09;60.31
43934;BME280;59081;42.706;23.306;2023-07-22T05:27:32;95235.44;;;24.75;60.71
43934;BME280;59081;42.706;23.306;2023-07-22T05:30:00;95052.38;;;23.34;60.21
43934;BME280;59081;42.706;23.306;2023-07-22T05:32:30;95038.47;;;22.35;64.33
43934;BME280;59081;42.706;23.306;2023-07-22T05:34:59;95157.50;;;23.50;63.41
43934;BME280;59081;42.706;23.306;2023-07-22T05:37:25;95023.75;;;22.18;64.11
43934;BME280;59081;42.706;23.306;2023-07-22T05:39:53;95055.28;;;22.41;64.95
43934;BME280;59081;42.706;23.306;2023-07-22T05:42:24;95249.91;;;24.06;63.58
43934;BME280;59081;42.706;23.306;2023-07-22T05:44:50;95122.75;;;23.53;63.01
43934;BME280;59081;42.706;23.306;2023-07-22T05:47:19;95060.84;;;23.29;61.59
43934;BME280;59081;42.706;23.306;2023-07-22T05:49:48;95248.69;;;24.55;61.83
43934;BME280;59081;42.706;23.306;2023-07-22T05:52:14;95211.84;;;24.53;60.73
43934;BME280;59081;42.706;23.306;2023-07-22T05:54:40;95062.75;;;23.45;61.18
43934;BME280;59081;42.706;23.306;2023-07-22T05:57:06;95075.78;;;23.42;61.63
43934;BME280;59081;42.706;23.306;2023-07-22T05:59:31;95213.47;;;24.43;61.36
43934;BME280;59081;42.706;23.306;2023-07-22T06:02:00;95132.78;;;24.03;60.81
43934;BME280;59081;42.706;23.306;2023-07-22T06:04:26;95205.72;;;24.74;60.31
43934;BME280;59081;42.706;23.306;2023-07-22T06:06:55;95266.75;;;25.33;60.19
43934;BME280;59081;42.706;23.306;2023-07-22T06:09:20;95237.94;;;25.40;59.82
43934;BME280;59081;42.706;23.306;2023-07-22T06:11:46;95157.25;;;25.18;58.77
43934;BME280;59081;42.706;23.306;2023-07-22T06:14:12;95155.19;;;25.38;57.73
43934;BME280;59081;42.706;23.306;2023-07-22T06:16:40;95130.66;;;25.32;56.85
43934;BME280;59081;42.706;23.306;2023-07-22T06:19:06;95284.19;;;26.39;56.86
43934;BME280;59081;42.706;23.306;2023-07-22T06:21:34;95211.94;;;25.98;56.98
43934;BME280;59081;42.706;23.306;2023-07-22T06:24:03;95290.13;;;26.03;57.74
43934;BME280;59081;42.706;23.306;2023-07-22T06:26:29;95199.22;;;25.41;57.97
43934;BME280;59081;42.706;23.306;2023-07-22T06:28:54;95088.25;;;24.69;58.02
43934;BME280;59081;42.706;23.306;2023-07-22T06:31:20;95217.50;;;25.53;57.48
43934;BME280;59081;42.706;23.306;2023-07-22T06:33:46;95109.53;;;24.45;58.79
43934;BME280;59081;42.706;23.306;2023-07-22T06:36:12;95107.84;;;24.98;57.00
43934;BME280;59081;42.706;23.306;2023-07-22T06:38:38;95175.72;;;25.70;56.39
43934;BME280;59081;42.706;23.306;2023-07-22T06:41:06;95257.59;;;26.47;55.74
43934;BME280;59081;42.706;23.306;2023-07-22T06:43:32;95292.66;;;26.97;56.08
43934;BME280;59081;42.706;23.306;2023-07-22T06:45:58;95165.69;;;26.01;55.58
43934;BME280;59081;42.706;23.306;2023-07-22T06:48:23;95226.34;;;26.26;56.14
43934;BME280;59081;42.706;23.306;2023-07-22T06:50:51;95259.97;;;26.43;56.12
43934;BME280;59081;42.706;23.306;2023-07-22T06:53:18;95112.66;;;25.36;55.87
43934;BME280;59081;42.706;23.306;2023-07-22T06:55:53;95095.56;;;25.47;55.73
43934;BME280;59081;42.706;23.306;2023-07-22T06:58:20;95067.81;;;25.51;55.37
43934;BME280;59081;42.706;23.306;2023-07-22T07:00:47;95239.78;;;26.65;56.40
43934;BME280;59081;42.706;23.306;2023-07-22T07:03:15;95147.38;;;26.21;56.47
43934;BME280;59081;42.706;23.306;2023-07-22T07:05:41;95125.25;;;26.12;55.92
43934;BME280;59081;42.706;23.306;2023-07-22T07:08:10;95185.69;;;26.61;56.01
43934;BME280;59081;42.706;23.306;2023-07-22T07:10:37;95155.97;;;26.28;54.91
43934;BME280;59081;42.706;23.306;2023-07-22T07:13:03;95106.25;;;26.12;55.76
43934;BME280;59081;42.706;23.306;2023-07-22T07:15:29;95064.66;;;26.13;55.28
43934;BME280;59081;42.706;23.306;2023-07-22T07:17:54;95177.59;;;27.18;53.65
43934;BME280;59081;42.706;23.306;2023-07-22T07:20:20;95253.09;;;27.57;52.91
43934;BME280;59081;42.706;23.306;2023-07-22T07:22:50;95101.34;;;26.65;52.10
43934;BME280;59081;42.706;23.306;2023-07-22T07:25:16;95249.44;;;27.83;52.51
43934;BME280;59081;42.706;23.306;2023-07-22T07:27:42;95074.16;;;26.76;52.63
43934;BME280;59081;42.706;23.306;2023-07-22T07:30:08;95270.56;;;28.37;52.02
43934;BME280;59081;42.706;23.306;2023-07-22T07:32:34;95142.00;;;27.57;52.36
43934;BME280;59081;42.706;23.306;2023-07-22T07:35:03;95216.69;;;27.75;52.67
43934;BME280;59081;42.706;23.306;2023-07-22T07:37:32;95215.81;;;28.00;51.44
43934;BME280;59081;42.706;23.306;2023-07-22T07:39:57;95082.16;;;26.85;50.61
43934;BME280;59081;42.706;23.306;2023-07-22T07:42:27;95090.72;;;26.58;52.35
43934;BME280;59081;42.706;23.306;2023-07-22T07:44:53;95184.69;;;28.00;50.52
43934;BME280;59081;42.706;23.306;2023-07-22T07:47:19;95189.16;;;28.17;49.62
43934;BME280;59081;42.706;23.306;2023-07-22T07:49:45;95155.19;;;27.96;50.78
43934;BME280;59081;42.706;23.306;2023-07-22T07:52:11;95216.75;;;28.65;49.40
43934;BME280;59081;42.706;23.306;2023-07-22T07:54:37;95092.59;;;28.07;48.29
43934;BME280;59081;42.706;23.306;2023-07-22T07:57:03;95152.78;;;28.21;49.53
43934;BME280;59081;42.706;23.306;2023-07-22T07:59:29;95173.88;;;28.69;48.89
43934;BME280;59081;42.706;23.306;2023-07-22T08:01:54;95077.41;;;28.18;47.85
43934;BME280;59081;42.706;23.306;2023-07-22T08:04:22;95095.22;;;28.26;48.52
43934;BME280;59081;42.706;23.306;2023-07-22T08:06:48;95117.94;;;28.33;48.50
43934;BME280;59081;42.706;23.306;2023-07-22T08:09:14;95126.31;;;28.47;48.14
43934;BME280;59081;42.706;23.306;2023-07-22T08:11:44;95182.72;;;28.65;48.46
43934;BME280;59081;42.706;23.306;2023-07-22T08:14:13;95098.69;;;28.11;48.40
43934;BME280;59081;42.706;23.306;2023-07-22T08:16:39;95137.38;;;28.65;47.68
43934;BME280;59081;42.706;23.306;2023-07-22T08:19:05;95175.13;;;29.32;46.39
43934;BME280;59081;42.706;23.306;2023-07-22T08:21:31;95170.88;;;29.03;47.95
43934;BME280;59081;42.706;23.306;2023-07-22T08:23:56;95250.03;;;29.73;47.40
43934;BME280;59081;42.706;23.306;2023-07-22T08:26:23;95128.50;;;28.97;47.12
43934;BME280;59081;42.706;23.306;2023-07-22T08:28:48;95154.53;;;28.88;47.82
43934;BME280;59081;42.706;23.306;2023-07-22T08:31:14;95148.94;;;29.55;45.77
43934;BME280;59081;42.706;23.306;2023-07-22T08:33:39;95171.56;;;30.06;45.52
43934;BME280;59081;42.706;23.306;2023-07-22T08:36:05;95143.50;;;30.18;44.56
43934;BME280;59081;42.706;23.306;2023-07-22T08:38:30;95107.56;;;30.13;43.91
43934;BME280;59081;42.706;23.306;2023-07-22T08:40:56;95103.56;;;30.16;44.10
43934;BME280;59081;42.706;23.306;2023-07-22T08:43:22;95213.88;;;31.18;44.34
43934;BME280;59081;42.706;23.306;2023-07-22T08:45:49;95092.38;;;29.95;44.42
43934;BME280;59081;42.706;23.306;2023-07-22T08:48:17;95152.72;;;30.87;42.39
43934;BME280;59081;42.706;23.306;2023-07-22T08:50:54;95158.66;;;30.58;44.55
43934;BME280;59081;42.706;23.306;2023-07-22T08:53:23;95125.63;;;30.78;42.15
43934;BME280;59081;42.706;23.306;2023-07-22T08:55:50;95098.19;;;30.50;42.21
43934;BME280;59081;42.706;23.306;2023-07-22T08:58:16;95020.41;;;30.23;41.83
43934;BME280;59081;42.706;23.306;2023-07-22T09:00:42;95119.84;;;31.16;41.34
43934;BME280;59081;42.706;23.306;2023-07-22T09:03:09;95093.34;;;30.91;40.55
43934;BME280;59081;42.706;23.306;2023-07-22T09:05:35;95052.16;;;30.59;41.46
43934;BME280;59081;42.706;23.306;2023-07-22T09:08:03;95047.13;;;30.83;41.45
43934;BME280;59081;42.706;23.306;2023-07-22T09:10:30;95103.38;;;31.39;40.42
43934;BME280;59081;42.706;23.306;2023-07-22T09:12:56;95081.75;;;31.36;40.71
43934;BME280;59081;42.706;23.306;2023-07-22T09:15:22;95093.56;;;31.33;40.47
43934;BME280;59081;42.706;23.306;2023-07-22T09:17:48;95060.34;;;31.60;39.68
43934;BME280;59081;42.706;23.306;2023-07-22T09:20:14;95132.59;;;32.47;37.82
43934;BME280;59081;42.706;23.306;2023-07-22T09:22:48;95069.34;;;32.24;38.32
43934;BME280;59081;42.706;23.306;2023-07-22T09:25:17;95175.94;;;33.22;38.30
43934;BME280;59081;42.706;23.306;2023-07-22T09:27:44;95090.25;;;32.61;37.61
43934;BME280;59081;42.706;23.306;2023-07-22T09:30:23;95101.44;;;32.83;37.62
43934;BME280;59081;42.706;23.306;2023-07-22T09:32:53;95179.78;;;33.51;37.20
43934;BME280;59081;42.706;23.306;2023-07-22T09:35:19;95112.97;;;33.37;36.38
43934;BME280;59081;42.706;23.306;2023-07-22T09:37:45;95174.16;;;33.44;37.04
43934;BME280;59081;42.706;23.306;2023-07-22T09:40:19;95165.34;;;33.49;37.14
43934;BME280;59081;42.706;23.306;2023-07-22T09:43:00;95158.53;;;33.89;35.49
43934;BME280;59081;42.706;23.306;2023-07-22T09:45:28;94986.78;;;32.16;36.26
43934;BME280;59081;42.706;23.306;2023-07-22T09:47:55;95134.44;;;33.82;34.71
43934;BME280;59081;42.706;23.306;2023-07-22T09:50:22;95092.50;;;33.31;35.99
43934;BME280;59081;42.706;23.306;2023-07-22T09:52:50;94995.41;;;32.60;34.01
43934;BME280;59081;42.706;23.306;2023-07-22T09:55:21;95066.88;;;33.41;33.06
43934;BME280;59081;42.706;23.306;2023-07-22T09:57:50;95141.81;;;33.59;33.18
43934;BME280;59081;42.706;23.306;2023-07-22T10:00:17;95048.44;;;33.25;33.42
43934;BME280;59081;42.706;23.306;2023-07-22T10:02:47;94991.44;;;33.17;33.64
43934;BME280;59081;42.706;23.306;2023-07-22T10:05:25;95119.19;;;34.07;33.30
43934;BME280;59081;42.706;23.306;2023-07-22T10:07:55;95039.63;;;34.03;33.67
43934;BME280;59081;42.706;23.306;2023-07-22T10:10:35;94993.72;;;33.92;33.28
43934;BME280;59081;42.706;23.306;2023-07-22T10:13:02;95148.31;;;34.88;32.63
43934;BME280;59081;42.706;23.306;2023-07-22T10:15:32;95094.66;;;34.69;33.12
43934;BME280;59081;42.706;23.306;2023-07-22T10:18:03;95044.09;;;34.43;33.42
43934;BME280;59081;42.706;23.306;2023-07-22T10:20:29;94991.09;;;34.32;29.49
43934;BME280;59081;42.706;23.306;2023-07-22T10:22:55;95044.69;;;34.89;29.61
43934;BME280;59081;42.706;23.306;2023-07-22T10:25:22;94964.59;;;34.32;29.29
43934;BME280;59081;42.706;23.306;2023-07-22T10:27:51;94941.44;;;34.28;29.49
43934;BME280;59081;42.706;23.306;2023-07-22T10:30:18;95101.66;;;35.84;28.96
43934;BME280;59081;42.706;23.306;2023-07-22T10:32:48;95071.06;;;35.77;28.33
43934;BME280;59081;42.706;23.306;2023-07-22T10:35:25;95088.34;;;35.19;29.11
43934;BME280;59081;42.706;23.306;2023-07-22T10:38:10;95008.19;;;34.13;29.14
43934;BME280;59081;42.706;23.306;2023-07-22T10:40:53;95054.31;;;34.55;29.29
43934;BME280;59081;42.706;23.306;2023-07-22T10:43:25;95016.53;;;34.96;28.77
43934;BME280;59081;42.706;23.306;2023-07-22T10:45:57;95072.47;;;35.56;28.48
43934;BME280;59081;42.706;23.306;2023-07-22T10:48:26;95057.69;;;36.01;27.67
43934;BME280;59081;42.706;23.306;2023-07-22T10:50:58;95010.31;;;35.09;27.97
43934;BME280;59081;42.706;23.306;2023-07-22T10:56:12;95117.94;;;35.72;27.62
43934;BME280;59081;42.706;23.306;2023-07-22T11:04:12;95115.41;;;36.16;27.83
43934;BME280;59081;42.706;23.306;2023-07-22T11:12:09;95040.28;;;36.82;25.64
43934;BME280;59081;42.706;23.306;2023-07-22T11:14:40;95103.88;;;37.21;26.12
43934;BME280;59081;42.706;23.306;2023-07-22T11:17:07;95066.78;;;37.25;26.31
43934;BME280;59081;42.706;23.306;2023-07-22T11:19:36;95100.31;;;37.88;24.49
43934;BME280;59081;42.706;23.306;2023-07-22T11:22:02;95032.63;;;37.52;24.37
43934;BME280;59081;42.706;23.306;2023-07-22T11:24:28;94988.66;;;37.61;23.61
43934;BME280;59081;42.706;23.306;2023-07-22T11:26:54;95033.56;;;36.89;25.64
43934;BME280;59081;42.706;23.306;2023-07-22T11:29:20;95089.94;;;37.06;25.65
43934;BME280;59081;42.706;23.306;2023-07-22T11:31:49;95008.56;;;36.58;25.24
43934;BME280;59081;42.706;23.306;2023-07-22T11:34:17;95022.38;;;36.72;25.84
43934;BME280;59081;42.706;23.306;2023-07-22T11:36:43;94994.31;;;36.49;26.12
43934;BME280;59081;42.706;23.306;2023-07-22T11:39:14;95003.78;;;36.73;25.37
43934;BME280;59081;42.706;23.306;2023-07-22T11:41:40;95002.16;;;36.48;25.70
43934;BME280;59081;42.706;23.306;2023-07-22T11:44:11;95032.91;;;36.79;26.34
43934;BME280;59081;42.706;23.306;2023-07-22T11:49:34;94929.13;;;36.28;25.26
43934;BME280;59081;42.706;23.306;2023-07-22T11:52:11;95083.38;;;36.51;26.92
43934;BME280;59081;42.706;23.306;2023-07-22T11:54:41;95018.69;;;36.38;26.68
43934;BME280;59081;42.706;23.306;2023-07-22T11:57:20;95045.59;;;36.54;26.75
43934;BME280;59081;42.706;23.306;2023-07-22T11:59:50;95000.72;;;36.59;27.13
43934;BME280;59081;42.706;23.306;2023-07-22T12:02:20;94988.63;;;36.60;27.05
43934;BME280;59081;42.706;23.306;2023-07-22T12:05:04;95066.72;;;37.35;26.19
43934;BME280;59081;42.706;23.306;2023-07-22T12:07:32;95063.69;;;37.33;26.61
43934;BME280;59081;42.706;23.306;2023-07-22T12:10:02;95025.56;;;37.77;25.72
43934;BME280;59081;42.706;23.306;2023-07-22T12:15:16;95060.94;;;37.91;25.40
43934;BME280;59081;42.706;23.306;2023-07-22T12:18:00;95041.56;;;37.68;25.53
43934;BME280;59081;42.706;23.306;2023-07-22T12:20:28;94929.94;;;36.73;25.58
43934;BME280;59081;42.706;23.306;2023-07-22T12:22:55;94944.34;;;36.97;25.95
43934;BME280;59081;42.706;23.306;2023-07-22T12:25:20;94934.50;;;37.11;25.77
43934;BME280;59081;42.706;23.306;2023-07-22T12:27:46;94947.78;;;37.28;25.27
43934;BME280;59081;42.706;23.306;2023-07-22T12:30:11;95004.94;;;38.15;24.71
43934;BME280;59081;42.706;23.306;2023-07-22T12:32:37;95011.81;;;37.87;25.65
43934;BME280;59081;42.706;23.306;2023-07-22T12:35:03;94988.69;;;37.85;25.24
43934;BME280;59081;42.706;23.306;2023-07-22T12:37:29;94946.66;;;38.03;24.45
43934;BME280;59081;42.706;23.306;2023-07-22T12:39:56;94995.97;;;38.46;24.18
43934;BME280;59081;42.706;23.306;2023-07-22T12:42:21;94936.94;;;37.85;24.32
43934;BME280;59081;42.706;23.306;2023-07-22T12:44:47;94955.50;;;38.30;23.84
43934;BME280;59081;42.706;23.306;2023-07-22T12:47:12;94931.41;;;38.12;24.73
43934;BME280;59081;42.706;23.306;2023-07-22T12:49:38;95041.16;;;38.55;24.15
43934;BME280;59081;42.706;23.306;2023-07-22T12:52:03;94939.19;;;37.63;24.74
43934;BME280;59081;42.706;23.306;2023-07-22T12:54:32;94892.72;;;37.43;24.63
43934;BME280;59081;42.706;23.306;2023-07-22T12:56:58;94943.41;;;38.09;24.28
43934;BME280;59081;42.706;23.306;2023-07-22T12:59:24;94997.44;;;38.22;24.31
43934;BME280;59081;42.706;23.306;2023-07-22T13:01:49;94993.06;;;38.70;24.01
43934;BME280;59081;42.706;23.306;2023-07-22T13:04:15;94940.34;;;38.79;23.15
43934;BME280;59081;42.706;23.306;2023-07-22T13:06:40;94971.44;;;39.33;22.60
43934;BME280;59081;42.706;23.306;2023-07-22T13:09:06;94918.41;;;39.11;23.05
43934;BME280;59081;42.706;23.306;2023-07-22T13:11:31;94928.22;;;39.33;22.02
43934;BME280;59081;42.706;23.306;2023-07-22T13:13:56;94931.13;;;39.33;22.23